createdAt,value
2023-05-09T00:00:42.430Z,3.00
2023-05-09T00:03:17.251Z,2.97
2023-05-09T00:05:48.738Z,2.75
2023-05-09T00:08:24.542Z,3.05
2023-05-09T00:10:54.811Z,2.90
2023-05-09T00:13:25.555Z,2.83
2023-05-09T00:16:00.392Z,3.15
2023-05-09T00:18:32.202Z,3.60
2023-05-09T00:21:04.251Z,4.88
2023-05-09T00:23:35.097Z,3.90
2023-05-09T00:26:12.395Z,3.22
2023-05-09T00:28:47.562Z,4.03
2023-05-09T00:31:19.597Z,3.50
2023-05-09T00:33:50.957Z,4.35
2023-05-09T00:36:27.562Z,4.78
2023-05-09T00:41:44.409Z,5.15
2023-05-09T00:46:45.521Z,5.80
2023-05-09T00:49:16.848Z,4.70
2023-05-09T00:51:48.219Z,4.63
2023-05-09T00:54:19.271Z,3.10
2023-05-09T00:56:51.612Z,3.40
2023-05-09T00:59:24.925Z,3.22
2023-05-09T01:01:57.032Z,4.65
2023-05-09T01:04:29.501Z,4.78
2023-05-09T01:07:47.425Z,3.95
2023-05-09T01:10:37.988Z,3.67
2023-05-09T01:13:46.325Z,6.75
2023-05-09T01:16:39.650Z,5.95
2023-05-09T01:19:20.873Z,4.07
2023-05-09T01:21:52.886Z,4.45
2023-05-09T01:24:32.918Z,4.80
2023-05-09T01:27:24.453Z,4.85
2023-05-09T01:30:05.061Z,3.40
2023-05-09T01:32:42.031Z,5.13
2023-05-09T01:35:31.821Z,17.83
2023-05-09T01:38:01.500Z,43.40
2023-05-09T01:40:41.334Z,29.33
2023-05-09T01:43:19.803Z,18.70
2023-05-09T01:45:55.488Z,17.95
2023-05-09T01:48:30.524Z,15.27
2023-05-09T01:51:11.313Z,12.07
2023-05-09T01:53:45.357Z,8.52
2023-05-09T01:56:13.916Z,5.05
2023-05-09T01:58:50.859Z,6.93
2023-05-09T02:01:27.432Z,3.90
2023-05-09T02:03:56.753Z,3.20
2023-05-09T02:06:30.745Z,3.20
2023-05-09T02:09:04.118Z,3.70
2023-05-09T02:11:34.504Z,3.10
2023-05-09T02:14:04.606Z,3.38
2023-05-09T02:16:36.795Z,3.72
2023-05-09T02:19:06.850Z,3.03
2023-05-09T02:21:37.423Z,3.53
2023-05-09T02:24:07.162Z,3.42
2023-05-09T02:26:40.457Z,3.78
2023-05-09T02:29:22.245Z,3.22
2023-05-09T02:32:00.206Z,3.60
2023-05-09T02:34:31.640Z,3.25
2023-05-09T02:37:06.561Z,3.63
2023-05-09T02:39:36.602Z,3.25
2023-05-09T02:42:16.807Z,3.35
2023-05-09T02:44:49.101Z,2.80
2023-05-09T02:47:26.103Z,3.42
2023-05-09T02:50:00.826Z,3.47
2023-05-09T02:52:31.713Z,3.20
2023-05-09T02:55:01.741Z,2.70
2023-05-09T02:57:36.525Z,3.15
2023-05-09T03:00:11.088Z,3.03
2023-05-09T03:02:41.168Z,3.58
2023-05-09T03:05:21.955Z,3.70
2023-05-09T03:07:55.084Z,2.92
2023-05-09T03:10:24.481Z,3.33
2023-05-09T03:12:58.747Z,3.45
2023-05-09T03:15:28.507Z,3.67
2023-05-09T03:17:57.636Z,3.45
2023-05-09T03:20:28.465Z,3.30
2023-05-09T03:23:01.770Z,3.55
2023-05-09T03:25:45.881Z,3.67
2023-05-09T03:28:16.634Z,4.00
2023-05-09T03:30:51.983Z,3.70
2023-05-09T03:33:31.175Z,3.58
2023-05-09T03:36:07.860Z,4.03
2023-05-09T03:38:39.858Z,4.15
2023-05-09T03:41:14.867Z,3.30
2023-05-09T03:43:50.256Z,3.30
2023-05-09T03:46:22.550Z,3.58
2023-05-09T03:48:54.577Z,3.63
2023-05-09T03:51:29.198Z,3.75
2023-05-09T03:54:10.220Z,2.95
2023-05-09T03:56:49.764Z,3.10
2023-05-09T03:59:19.373Z,3.58
2023-05-09T04:01:48.711Z,4.00
2023-05-09T04:04:29.843Z,3.70
2023-05-09T04:07:10.421Z,3.63
2023-05-09T04:09:42.413Z,4.10
2023-05-09T04:12:21.782Z,3.75
2023-05-09T04:14:55.255Z,3.80
2023-05-09T04:17:30.847Z,3.58
2023-05-09T04:20:12.860Z,4.22
2023-05-09T04:23:04.541Z,3.65
2023-05-09T04:25:34.789Z,3.78
2023-05-09T04:28:18.919Z,3.90
2023-05-09T04:30:50.203Z,4.00
2023-05-09T04:33:33.760Z,3.72
2023-05-09T04:36:09.298Z,2.75
2023-05-09T04:38:39.087Z,4.90
2023-05-09T04:41:25.085Z,4.60
2023-05-09T04:43:55.148Z,5.63
2023-05-09T04:46:39.000Z,5.47
2023-05-09T04:49:27.232Z,4.97
2023-05-09T04:51:56.558Z,4.78
2023-05-09T04:54:39.245Z,5.50
2023-05-09T04:57:17.228Z,5.47
2023-05-09T04:59:57.309Z,5.25
2023-05-09T05:02:28.736Z,5.03
2023-05-09T05:05:11.012Z,5.22
2023-05-09T05:07:54.498Z,5.05
2023-05-09T05:10:34.014Z,5.03
2023-05-09T05:13:11.817Z,4.45
2023-05-09T05:15:44.773Z,5.10
2023-05-09T05:18:16.104Z,4.85
2023-05-09T05:20:48.231Z,4.88
2023-05-09T05:23:19.462Z,4.47
2023-05-09T05:26:00.268Z,5.35
2023-05-09T05:28:42.187Z,4.95
2023-05-09T05:31:18.341Z,6.03
2023-05-09T05:33:53.844Z,5.38
2023-05-09T05:36:24.900Z,4.80
2023-05-09T05:38:54.308Z,4.75
2023-05-09T05:41:37.262Z,5.68
2023-05-09T05:44:18.620Z,4.75
2023-05-09T05:46:53.040Z,5.00
2023-05-09T05:49:31.289Z,5.83
2023-05-09T05:52:06.642Z,5.68
2023-05-09T05:54:41.735Z,5.90
2023-05-09T05:57:14.018Z,5.03
2023-05-09T05:59:44.566Z,5.53
2023-05-09T06:02:23.831Z,5.60
2023-05-09T06:04:54.657Z,5.50
2023-05-09T06:07:27.443Z,6.35
2023-05-09T06:09:59.285Z,5.50
2023-05-09T06:12:34.792Z,5.90
2023-05-09T06:15:06.179Z,6.07
2023-05-09T06:17:43.496Z,5.80
2023-05-09T06:20:15.013Z,5.38
2023-05-09T06:22:46.509Z,6.85
2023-05-09T06:25:18.382Z,7.30
2023-05-09T06:27:48.904Z,5.25
2023-05-09T06:30:26.413Z,5.28
2023-05-09T06:35:44.410Z,4.32
2023-05-09T06:38:15.805Z,5.93
2023-05-09T06:40:50.529Z,5.32
2023-05-09T06:43:20.571Z,6.32
2023-05-09T06:45:49.101Z,6.68
2023-05-09T06:48:21.544Z,6.05
2023-05-09T06:50:54.815Z,6.68
2023-05-09T06:53:24.900Z,7.55
2023-05-09T06:55:56.291Z,7.45
2023-05-09T06:58:30.873Z,7.35
2023-05-09T07:01:04.293Z,8.40
2023-05-09T07:03:36.786Z,6.68
2023-05-09T07:08:59.354Z,6.70
2023-05-09T07:11:28.775Z,6.28
2023-05-09T07:14:01.146Z,7.35
2023-05-09T07:16:31.129Z,7.53
2023-05-09T07:19:00.810Z,7.25
2023-05-09T07:21:29.613Z,8.35
2023-05-09T07:24:09.782Z,8.60
2023-05-09T07:26:37.554Z,9.15
2023-05-09T07:29:16.356Z,10.32
2023-05-09T07:31:56.509Z,9.45
2023-05-09T07:34:27.249Z,10.52
2023-05-09T07:36:55.986Z,10.65
2023-05-09T07:39:29.164Z,10.85
2023-05-09T07:42:00.959Z,10.70
2023-05-09T07:44:35.515Z,9.45
2023-05-09T07:47:09.262Z,11.52
2023-05-09T07:49:45.244Z,10.27
2023-05-09T07:52:14.909Z,11.80
2023-05-09T07:54:47.385Z,11.07
2023-05-09T07:57:27.657Z,10.57
2023-05-09T07:59:59.854Z,12.82
2023-05-09T08:02:33.119Z,12.75
2023-05-09T08:05:07.361Z,13.80
2023-05-09T08:07:41.617Z,13.65
2023-05-09T08:10:13.953Z,11.83
2023-05-09T08:12:48.021Z,13.57
2023-05-09T08:15:21.928Z,12.55
2023-05-09T08:17:51.917Z,10.88
2023-05-09T08:20:22.241Z,11.10
2023-05-09T08:22:52.020Z,11.23
2023-05-09T08:25:25.444Z,10.00
2023-05-09T08:28:08.639Z,10.90
2023-05-09T08:30:58.158Z,11.43
2023-05-09T08:33:30.095Z,9.98
2023-05-09T08:35:59.798Z,11.15
2023-05-09T08:38:30.598Z,10.75
2023-05-09T08:41:02.434Z,9.75
2023-05-09T08:43:38.782Z,9.75
2023-05-09T08:46:13.176Z,9.60
2023-05-09T08:48:55.571Z,9.30
2023-05-09T08:51:25.941Z,9.30
2023-05-09T08:53:56.665Z,9.32
2023-05-09T08:56:29.779Z,8.52
2023-05-09T08:59:00.402Z,7.30
2023-05-09T09:01:29.405Z,7.53
2023-05-09T09:03:59.069Z,7.50
2023-05-09T09:06:40.057Z,6.97
2023-05-09T09:09:19.864Z,7.65
2023-05-09T09:11:54.961Z,6.80
2023-05-09T09:14:51.222Z,6.82
2023-05-09T09:17:32.380Z,6.10
2023-05-09T09:20:13.484Z,7.15
2023-05-09T09:22:45.325Z,6.05
2023-05-09T09:25:19.222Z,6.45
2023-05-09T09:27:54.364Z,7.35
2023-05-09T09:30:35.461Z,5.80
2023-05-09T09:33:08.409Z,6.43
2023-05-09T09:35:43.451Z,5.63
2023-05-09T09:38:13.999Z,6.45
2023-05-09T09:41:06.959Z,5.03
2023-05-09T09:43:37.483Z,5.47
2023-05-09T09:46:10.133Z,5.95
2023-05-09T09:48:43.003Z,4.95
2023-05-09T09:53:57.003Z,4.93
2023-05-09T09:56:39.122Z,6.90
2023-05-09T09:59:15.290Z,10.60
2023-05-09T10:02:08.279Z,7.38
2023-05-09T10:05:03.924Z,4.75
2023-05-09T10:07:35.738Z,4.63
2023-05-09T10:10:09.437Z,4.28
2023-05-09T10:12:37.516Z,4.10
2023-05-09T10:15:10.495Z,4.25
2023-05-09T10:17:42.473Z,4.32
2023-05-09T10:20:24.074Z,4.00
2023-05-09T10:23:05.978Z,4.22
2023-05-09T10:26:33.213Z,4.72
2023-05-09T10:29:13.851Z,3.60
2023-05-09T10:31:43.683Z,3.40
2023-05-09T10:34:27.662Z,3.88
2023-05-09T10:37:08.755Z,3.17
2023-05-09T10:39:41.874Z,3.40
2023-05-09T10:42:19.332Z,3.20
2023-05-09T10:44:56.672Z,3.03
2023-05-09T10:47:30.032Z,2.80
2023-05-09T10:50:06.998Z,2.58
2023-05-09T10:52:38.350Z,3.00
2023-05-09T10:55:15.838Z,3.38
2023-05-09T10:57:56.310Z,2.92
2023-05-09T11:00:33.366Z,2.45
2023-05-09T11:03:13.143Z,4.68
2023-05-09T11:05:46.504Z,3.30
2023-05-09T11:08:37.363Z,2.60
2023-05-09T11:11:07.696Z,2.15
2023-05-09T11:13:38.818Z,1.95
2023-05-09T11:16:12.363Z,2.00
2023-05-09T11:19:03.290Z,1.77
2023-05-09T11:22:03.013Z,2.00
2023-05-09T11:24:58.158Z,2.20
2023-05-09T11:27:38.231Z,2.53
2023-05-09T11:30:23.579Z,2.08
2023-05-09T11:33:07.855Z,2.25
2023-05-09T11:35:39.152Z,2.00
2023-05-09T11:38:08.626Z,1.77
2023-05-09T11:40:42.055Z,2.05
2023-05-09T11:43:23.663Z,1.77
2023-05-09T11:45:59.220Z,1.80
2023-05-09T11:48:39.353Z,1.50
2023-05-09T11:51:31.647Z,1.90
2023-05-09T11:54:02.934Z,1.75
2023-05-09T11:56:34.260Z,1.65
2023-05-09T11:59:08.270Z,1.63
2023-05-09T12:01:37.776Z,4.10
2023-05-09T12:04:17.338Z,4.35
2023-05-09T12:06:54.378Z,1.67
2023-05-09T12:09:27.990Z,1.55
2023-05-09T12:11:58.384Z,1.35
2023-05-09T12:14:37.618Z,1.38
2023-05-09T12:17:09.925Z,1.38
2023-05-09T12:19:43.980Z,1.45
2023-05-09T12:22:26.030Z,1.10
2023-05-09T12:24:56.454Z,1.30
2023-05-09T12:27:29.109Z,1.88
2023-05-09T12:29:57.287Z,1.98
2023-05-09T12:32:35.406Z,1.65
2023-05-09T12:35:06.712Z,7.18
2023-05-09T12:37:39.539Z,3.35
2023-05-09T12:40:20.825Z,1.60
2023-05-09T12:42:50.224Z,1.30
2023-05-09T12:45:23.192Z,1.45
2023-05-09T12:47:59.775Z,1.10
2023-05-09T12:50:35.545Z,1.30
2023-05-09T12:53:12.003Z,1.60
2023-05-09T12:58:18.405Z,1.48
2023-05-09T13:01:05.829Z,1.52
2023-05-09T13:03:40.703Z,0.98
2023-05-09T13:06:17.776Z,1.00
2023-05-09T13:09:06.757Z,0.80
2023-05-09T13:11:37.800Z,1.08
2023-05-09T13:14:08.516Z,0.98
2023-05-09T13:16:44.519Z,1.17
2023-05-09T13:19:17.164Z,1.02
2023-05-09T13:21:48.189Z,1.08
2023-05-09T13:24:20.514Z,0.80
2023-05-09T13:26:51.389Z,0.85
2023-05-09T13:29:22.902Z,1.02
2023-05-09T13:31:53.010Z,1.00
2023-05-09T13:34:25.901Z,0.88
2023-05-09T13:37:09.316Z,0.60
2023-05-09T13:39:39.097Z,1.00
2023-05-09T13:42:26.404Z,0.98
2023-05-09T13:44:57.504Z,0.85
2023-05-09T13:47:33.187Z,0.80
2023-05-09T13:50:13.180Z,0.98
2023-05-09T13:52:45.359Z,0.95
2023-05-09T13:55:15.233Z,0.80
2023-05-09T13:57:47.445Z,1.10
2023-05-09T14:00:18.614Z,0.93
2023-05-09T14:02:48.449Z,0.85
2023-05-09T14:05:18.321Z,0.90
2023-05-09T14:07:49.667Z,1.10
2023-05-09T14:10:20.067Z,1.10
2023-05-09T14:13:00.773Z,1.35
2023-05-09T14:15:31.101Z,1.15
2023-05-09T14:18:01.237Z,1.10
2023-05-09T14:20:37.373Z,1.30
2023-05-09T14:23:18.306Z,1.38
2023-05-09T14:25:49.377Z,1.13
2023-05-09T14:28:18.018Z,1.70
2023-05-09T14:30:51.576Z,1.30
2023-05-09T14:33:25.012Z,1.33
2023-05-09T14:36:01.209Z,1.10
2023-05-09T14:38:37.979Z,1.10
2023-05-09T14:41:07.210Z,0.95
2023-05-09T14:43:40.856Z,1.47
2023-05-09T14:46:16.131Z,1.20
2023-05-09T14:48:45.529Z,1.02
2023-05-09T14:51:16.809Z,1.83
2023-05-09T14:53:50.921Z,1.05
2023-05-09T14:56:24.388Z,1.80
2023-05-09T14:58:57.576Z,1.35
2023-05-09T15:01:34.564Z,2.65
2023-05-09T15:04:04.755Z,1.85
2023-05-09T15:06:42.804Z,6.47
2023-05-09T15:09:13.204Z,2.20
2023-05-09T15:11:49.384Z,2.55
2023-05-09T15:14:18.484Z,3.15
2023-05-09T15:16:48.463Z,2.00
2023-05-09T15:19:18.682Z,3.72
2023-05-09T15:21:51.802Z,4.38
2023-05-09T15:24:24.301Z,3.03
2023-05-09T15:26:55.262Z,3.22
2023-05-09T15:29:25.359Z,4.05
2023-05-09T15:31:58.150Z,5.43
2023-05-09T15:34:28.154Z,2.10
2023-05-09T15:36:59.619Z,3.17
2023-05-09T15:39:38.356Z,2.90
2023-05-09T15:42:12.259Z,2.60
2023-05-09T15:44:50.334Z,2.90
2023-05-09T15:47:20.980Z,3.15
2023-05-09T15:49:56.104Z,1.83
2023-05-09T15:52:37.561Z,2.88
2023-05-09T15:55:09.763Z,3.70
2023-05-09T15:57:52.762Z,2.83
2023-05-09T16:00:23.814Z,4.15
2023-05-09T16:02:54.804Z,3.00
2023-05-09T16:05:27.796Z,2.90
2023-05-09T16:07:56.823Z,3.80
2023-05-09T16:10:38.885Z,4.05
2023-05-09T16:13:08.627Z,5.25
2023-05-09T16:15:41.931Z,8.13
2023-05-09T16:18:14.353Z,5.72
2023-05-09T16:20:45.251Z,7.22
2023-05-09T16:23:22.020Z,1.25
2023-05-09T16:25:52.469Z,8.60
2023-05-09T16:28:23.803Z,8.98
2023-05-09T16:30:59.512Z,3.53
2023-05-09T16:33:30.660Z,5.03
2023-05-09T16:36:00.316Z,4.30
2023-05-09T16:38:34.434Z,3.75
2023-05-09T16:41:10.918Z,2.97
2023-05-09T16:43:41.881Z,2.90
2023-05-09T16:46:12.508Z,4.85
2023-05-09T16:48:42.923Z,3.13
2023-05-09T16:51:12.793Z,4.10
2023-05-09T16:53:45.193Z,1.83
2023-05-09T16:56:19.020Z,1.33
2023-05-09T16:58:50.533Z,2.80
2023-05-09T17:01:19.826Z,7.95
2023-05-09T17:03:54.580Z,6.60
2023-05-09T17:06:25.278Z,5.50
2023-05-09T17:08:57.814Z,6.97
2023-05-09T17:11:28.169Z,5.03
2023-05-09T17:14:04.294Z,3.42
2023-05-09T17:16:38.282Z,1.63
2023-05-09T17:19:19.789Z,2.13
2023-05-09T17:21:52.040Z,2.38
2023-05-09T17:24:25.611Z,1.98
2023-05-09T17:27:06.363Z,1.67
2023-05-09T17:29:39.507Z,2.03
2023-05-09T17:32:13.102Z,2.28
2023-05-09T17:34:43.580Z,2.42
2023-05-09T17:37:14.566Z,2.80
2023-05-09T17:39:47.835Z,2.97
2023-05-09T17:42:34.536Z,2.22
2023-05-09T17:45:09.633Z,2.08
2023-05-09T17:47:50.469Z,2.38
2023-05-09T17:50:21.662Z,2.20
2023-05-09T17:53:00.644Z,2.33
2023-05-09T17:55:32.329Z,7.32
2023-05-09T17:58:08.208Z,2.20
2023-05-09T18:00:37.333Z,2.05
2023-05-09T18:03:07.649Z,1.95
2023-05-09T18:05:49.485Z,2.97
2023-05-09T18:08:25.122Z,2.67
2023-05-09T18:11:01.685Z,1.98
2023-05-09T18:13:39.844Z,2.67
2023-05-09T18:16:10.874Z,2.70
2023-05-09T18:18:48.991Z,3.53
2023-05-09T18:21:20.644Z,3.00
2023-05-09T18:23:50.729Z,2.40
2023-05-09T18:26:24.404Z,2.87
2023-05-09T18:28:54.812Z,2.05
2023-05-09T18:31:27.297Z,2.35
2023-05-09T18:36:41.287Z,2.58
2023-05-09T18:39:11.909Z,2.50
2023-05-09T18:41:43.594Z,2.80
2023-05-09T18:44:15.750Z,3.00
2023-05-09T18:46:46.885Z,2.40
2023-05-09T18:49:14.297Z,2.70
2023-05-09T18:51:52.710Z,2.40
2023-05-09T18:54:25.045Z,6.50
2023-05-09T18:56:56.214Z,7.35
2023-05-09T18:59:24.850Z,3.65
2023-05-09T19:01:54.787Z,2.58
2023-05-09T19:04:26.391Z,2.38
2023-05-09T19:06:59.467Z,2.20
2023-05-09T19:09:31.406Z,4.72
2023-05-09T19:12:05.335Z,3.20
2023-05-09T19:14:34.173Z,3.40
2023-05-09T19:17:07.336Z,3.15
2023-05-09T19:19:36.241Z,2.75
2023-05-09T19:22:08.249Z,3.90
2023-05-09T19:24:44.243Z,3.72
2023-05-09T19:27:14.437Z,3.60
2023-05-09T19:29:50.046Z,3.88
2023-05-09T19:32:21.743Z,3.70
2023-05-09T19:34:52.730Z,4.90
2023-05-09T19:37:27.488Z,4.80
2023-05-09T19:42:39.784Z,3.30
2023-05-09T19:45:14.980Z,4.10
2023-05-09T19:47:46.419Z,5.20
2023-05-09T19:50:15.459Z,5.03
2023-05-09T19:52:46.765Z,4.90
2023-05-09T19:55:20.558Z,5.20
2023-05-09T19:57:57.851Z,6.15
2023-05-09T20:00:28.833Z,4.88
2023-05-09T20:03:01.187Z,4.35
2023-05-09T20:08:23.125Z,4.47
2023-05-09T20:11:00.873Z,4.40
2023-05-09T20:13:45.672Z,4.38
2023-05-09T20:16:19.164Z,4.10
2023-05-09T20:18:56.485Z,4.80
2023-05-09T20:21:27.957Z,4.40
2023-05-09T20:24:02.797Z,8.73
2023-05-09T20:26:33.872Z,4.30
2023-05-09T20:29:06.149Z,5.07
2023-05-09T20:31:38.239Z,5.15
2023-05-09T20:34:15.956Z,3.85
2023-05-09T20:36:53.082Z,4.00
2023-05-09T20:39:25.122Z,3.65
2023-05-09T20:42:00.422Z,4.05
2023-05-09T20:44:47.772Z,4.00
2023-05-09T20:47:21.737Z,4.50
2023-05-09T20:49:58.081Z,4.07
2023-05-09T20:52:29.522Z,5.00
2023-05-09T20:55:04.974Z,4.68
2023-05-09T20:57:43.678Z,4.72
2023-05-09T21:00:15.567Z,4.57
2023-05-09T21:02:49.065Z,5.03
2023-05-09T21:05:28.302Z,4.72
2023-05-09T21:07:57.071Z,4.10
2023-05-09T21:10:30.039Z,4.65
2023-05-09T21:13:07.141Z,8.55
2023-05-09T21:15:41.265Z,9.32
2023-05-09T21:18:19.126Z,5.18
2023-05-09T21:20:56.122Z,4.60
2023-05-09T21:23:25.569Z,4.55
2023-05-09T21:25:59.959Z,4.32
2023-05-09T21:28:40.460Z,4.43
2023-05-09T21:31:16.197Z,5.85
2023-05-09T21:33:47.982Z,4.63
2023-05-09T21:36:20.019Z,4.45
2023-05-09T21:38:51.193Z,4.47
2023-05-09T21:41:19.567Z,4.90
2023-05-09T21:43:55.070Z,4.10
2023-05-09T21:46:24.225Z,4.63
2023-05-09T21:48:54.090Z,4.30
2023-05-09T21:51:27.354Z,4.65
2023-05-09T21:53:56.462Z,4.53
2023-05-09T21:56:31.177Z,4.53
2023-05-09T21:59:00.618Z,4.90
2023-05-09T22:01:45.124Z,5.05
2023-05-09T22:04:16.368Z,4.68
2023-05-09T22:06:48.961Z,4.70
2023-05-09T22:09:23.722Z,4.13
2023-05-09T22:14:52.676Z,4.97
2023-05-09T22:17:37.239Z,4.40
2023-05-09T22:20:12.630Z,4.47
2023-05-09T22:22:42.438Z,4.97
2023-05-09T22:25:11.677Z,4.63
2023-05-09T22:27:47.880Z,5.40
2023-05-09T22:30:23.381Z,4.80
2023-05-09T22:32:54.887Z,4.82
2023-05-09T22:35:24.973Z,5.32
2023-05-09T22:37:52.799Z,7.57
2023-05-09T22:40:23.558Z,13.23
2023-05-09T22:42:53.792Z,8.55
2023-05-09T22:45:25.016Z,5.22
2023-05-09T22:47:57.851Z,4.80
2023-05-09T22:50:27.727Z,4.65
2023-05-09T22:53:05.955Z,4.90
2023-05-09T22:55:45.771Z,4.90
2023-05-09T22:58:23.085Z,4.20
2023-05-09T23:00:53.961Z,3.97
2023-05-09T23:03:27.312Z,4.95
2023-05-09T23:06:12.832Z,4.13
2023-05-09T23:11:13.705Z,4.25
2023-05-09T23:13:48.066Z,3.67
2023-05-09T23:16:20.467Z,4.05
2023-05-09T23:18:55.937Z,3.72
2023-05-09T23:21:23.902Z,3.85
2023-05-09T23:23:56.237Z,3.42
2023-05-09T23:26:24.874Z,4.32
2023-05-09T23:28:59.622Z,3.88
2023-05-09T23:31:30.836Z,3.67
2023-05-09T23:34:01.984Z,4.03
2023-05-09T23:36:39.423Z,4.32
2023-05-09T23:39:11.277Z,4.53
2023-05-09T23:41:44.682Z,3.88
2023-05-09T23:44:26.980Z,3.88
2023-05-09T23:47:02.304Z,3.83
2023-05-09T23:49:31.108Z,4.13
2023-05-09T23:52:06.379Z,4.07
2023-05-09T23:54:49.986Z,3.65
2023-05-09T23:57:21.807Z,3.83
2023-05-09T23:59:54.481Z,3.70
